Time;durP1;ratioP1;P1;durP2;ratioP2;P2;SDS_P1;SDS_P2;PMS_P1;PMS_P2;Temp;Humidity;BMP_temperature;BMP_pressure;BME280_temperature;BME280_humidity;BME280_pressure;Samples;Min_cycle;Max_cycle;Signal;HPM_P1;HPM_P2
2021/05/13 00:01:22;;;;;;;20.20;3.58;;;;;;;;;;5009285;28;20113;-61
2021/05/13 00:03:49;;;;;;;46.92;4.18;;;;;;;;;;5011289;28;20026;-62
2021/05/13 00:06:15;;;;;;;144.20;7.03;;;;;;;;;;5010683;28;20026;-61
2021/05/13 00:08:41;;;;;;;332.05;10.23;;;;;;;;;;5012406;28;20030;-61
2021/05/13 00:11:07;;;;;;;86.43;5.55;;;;;;;;;;5011601;28;20034;-61
2021/05/13 00:13:34;;;;;;;65.70;5.88;;;;;;;;;;5012130;28;20056;-62
2021/05/13 00:16:01;;;;;;;32.75;4.53;;;;;;;;;;5013879;28;20030;-61
2021/05/13 00:18:27;;;;;;;26.95;4.00;;;;;;;;;;5012843;28;20029;-62
2021/05/13 00:20:54;;;;;;;117.10;5.60;;;;;;;;;;5012883;28;20026;-62
2021/05/13 00:23:20;;;;;;;258.38;8.13;;;;;;;;;;5012439;28;20370;-61
2021/05/13 00:25:50;;;;;;;72.55;5.22;;;;;;;;;;5013056;28;20022;-62
2021/05/13 00:28:17;;;;;;;142.45;7.13;;;;;;;;;;5012910;28;20030;-61
2021/05/13 00:30:43;;;;;;;20.42;4.60;;;;;;;;;;5013964;28;20528;-61
2021/05/13 00:33:10;;;;;;;107.70;5.00;;;;;;;;;;5012498;28;20042;-61
2021/05/13 00:35:36;;;;;;;333.55;9.38;;;;;;;;;;5012687;28;20511;-61
2021/05/13 00:38:02;;;;;;;31.15;3.45;;;;;;;;;;5012364;28;20026;-61
2021/05/13 00:40:28;;;;;;;96.20;4.85;;;;;;;;;;5012651;28;20117;-61
2021/05/13 00:42:54;;;;;;;140.07;5.90;;;;;;;;;;5013479;28;20513;-61
2021/05/13 00:45:20;;;;;;;103.80;5.22;;;;;;;;;;5012520;28;20030;-61
2021/05/13 00:48:14;;;;;;;28.55;3.47;;;;;;;;;;5012390;28;20133;-61
2021/05/13 00:50:34;;;;;;;76.80;5.07;;;;;;;;;;5010331;28;20493;-61
2021/05/13 00:53:04;;;;;;;185.73;6.90;;;;;;;;;;5009993;28;20029;-62
2021/05/13 00:55:31;;;;;;;104.47;6.00;;;;;;;;;;4995988;28;20022;-62
2021/05/13 00:57:57;;;;;;;22.77;4.30;;;;;;;;;;5014026;28;20045;-62
2021/05/13 01:00:35;;;;;;;126.35;4.55;;;;;;;;;;5012114;28;20033;-61
2021/05/13 01:03:01;;;;;;;55.10;3.03;;;;;;;;;;5011804;28;20481;-61
2021/05/13 01:05:28;;;;;;;37.50;3.67;;;;;;;;;;5012228;28;20026;-61
2021/05/13 01:07:56;;;;;;;11.13;3.67;;;;;;;;;;5011734;28;20393;-61
2021/05/13 01:10:24;;;;;;;44.83;4.47;;;;;;;;;;5012079;28;20042;-61
2021/05/13 01:12:50;;;;;;;101.30;5.72;;;;;;;;;;5013765;28;20021;-62
2021/05/13 01:20:31;;;;;;;104.05;5.50;;;;;;;;;;5011934;28;20350;-61
2021/05/13 01:22:58;;;;;;;103.50;5.40;;;;;;;;;;5011384;28;20037;-62
2021/05/13 01:25:25;;;;;;;155.18;6.82;;;;;;;;;;5011793;28;20034;-62
2021/05/13 01:27:56;;;;;;;75.95;5.40;;;;;;;;;;5013671;28;20107;-62
2021/05/13 01:30:22;;;;;;;36.80;4.28;;;;;;;;;;5010083;28;20478;-62
2021/05/13 01:32:48;;;;;;;44.20;5.25;;;;;;;;;;5009662;28;20053;-62
2021/05/13 01:35:14;;;;;;;62.97;4.95;;;;;;;;;;5010257;28;20485;-61
2021/05/13 01:37:40;;;;;;;61.00;4.97;;;;;;;;;;5011775;28;20072;-61
2021/05/13 01:40:07;;;;;;;165.90;5.03;;;;;;;;;;5012555;28;20113;-61
2021/05/13 01:42:33;;;;;;;101.78;4.55;;;;;;;;;;5012290;28;20482;-61
2021/05/13 01:44:59;;;;;;;32.05;3.95;;;;;;;;;;5011533;28;20041;-61
2021/05/13 01:47:24;;;;;;;11.20;3.88;;;;;;;;;;5011122;28;20026;-61
2021/05/13 01:49:51;;;;;;;32.95;4.03;;;;;;;;;;5011210;28;20042;-61
2021/05/13 01:52:17;;;;;;;21.25;4.00;;;;;;;;;;5010929;28;20506;-61
2021/05/13 01:54:43;;;;;;;13.73;4.32;;;;;;;;;;5013305;28;20034;-61
2021/05/13 01:57:09;;;;;;;16.52;3.80;;;;;;;;;;5010846;28;20556;-62
2021/05/13 01:59:36;;;;;;;13.05;4.10;;;;;;;;;;5011003;28;20080;-62
2021/05/13 02:02:02;;;;;;;7.53;3.72;;;;;;;;;;5010997;28;20026;-61
2021/05/13 02:04:29;;;;;;;10.05;3.53;;;;;;;;;;5010913;28;20034;-62
2021/05/13 02:06:55;;;;;;;7.90;4.15;;;;;;;;;;5012515;28;20528;-62
2021/05/13 02:09:21;;;;;;;8.50;4.75;;;;;;;;;;5009484;28;20025;-62
2021/05/13 02:11:47;;;;;;;6.97;3.97;;;;;;;;;;5009061;28;20500;-61
2021/05/13 02:14:14;;;;;;;7.93;4.10;;;;;;;;;;5009402;28;20469;-61
2021/05/13 02:16:40;;;;;;;8.82;4.10;;;;;;;;;;5011100;28;20704;-61
2021/05/13 02:19:06;;;;;;;7.38;3.67;;;;;;;;;;5011866;28;20050;-61
2021/05/13 02:21:32;;;;;;;37.97;4.03;;;;;;;;;;5010875;28;20100;-61
2021/05/13 02:23:58;;;;;;;6.10;3.22;;;;;;;;;;5009813;28;20232;-61
2021/05/13 02:26:24;;;;;;;6.88;3.92;;;;;;;;;;5010235;28;20033;-61
2021/05/13 02:28:50;;;;;;;10.15;3.90;;;;;;;;;;5010413;28;20386;-61
2021/05/13 02:31:16;;;;;;;8.52;4.47;;;;;;;;;;5009935;28;20037;-62
2021/05/13 02:33:42;;;;;;;9.23;4.15;;;;;;;;;;5012127;28;20038;-62
2021/05/13 02:36:08;;;;;;;6.15;3.35;;;;;;;;;;5010397;28;20497;-61
2021/05/13 02:38:35;;;;;;;6.78;3.22;;;;;;;;;;5010092;28;20022;-61
2021/05/13 02:41:01;;;;;;;5.72;3.05;;;;;;;;;;5010191;28;20022;-61
2021/05/13 02:43:27;;;;;;;5.63;3.28;;;;;;;;;;5010555;28;20026;-61
2021/05/13 02:45:53;;;;;;;6.32;3.55;;;;;;;;;;5011626;28;20068;-62
2021/05/13 02:48:19;;;;;;;7.40;3.80;;;;;;;;;;5008693;28;20037;-62
2021/05/13 02:50:45;;;;;;;6.03;3.25;;;;;;;;;;5008503;28;20493;-61
2021/05/13 02:53:13;;;;;;;7.00;3.17;;;;;;;;;;5008760;28;20032;-61
2021/05/13 02:55:39;;;;;;;5.93;3.35;;;;;;;;;;5010433;28;20548;-62
2021/05/13 02:58:05;;;;;;;7.68;3.47;;;;;;;;;;5011146;28;20101;-62
2021/05/13 03:03:23;;;;;;;10.10;3.00;;;;;;;;;;4998656;28;20026;-61
2021/05/13 03:05:52;;;;;;;7.07;2.95;;;;;;;;;;5010025;28;20025;-62
2021/05/13 03:08:18;;;;;;;8.23;3.00;;;;;;;;;;5009823;28;20121;-61
2021/05/13 03:10:45;;;;;;;34.05;3.58;;;;;;;;;;5009525;28;20593;-61
2021/05/13 03:13:19;;;;;;;6.55;2.80;;;;;;;;;;5010607;28;20018;-61
2021/05/13 03:15:45;;;;;;;6.60;3.25;;;;;;;;;;5010441;28;20440;-61
2021/05/13 03:18:11;;;;;;;6.45;3.13;;;;;;;;;;5009764;28;20033;-61
2021/05/13 03:20:43;;;;;;;5.03;2.63;;;;;;;;;;5009557;28;20029;-61
2021/05/13 03:23:11;;;;;;;6.90;3.30;;;;;;;;;;5009471;28;20065;-61
2021/05/13 03:25:39;;;;;;;;;;;;;;;;;;5009268;28;20553;-61
2021/05/13 03:28:11;;;;;;;7.40;2.83;;;;;;;;;;5011026;28;19906;-62
2021/05/13 03:30:42;;;;;;;5.80;3.15;;;;;;;;;;5011324;28;20381;-61
2021/05/13 03:33:08;;;;;;;5.38;3.10;;;;;;;;;;5008072;28;20064;-61
2021/05/13 03:35:35;;;;;;;8.10;4.25;;;;;;;;;;5009218;28;20018;-61
2021/05/13 03:38:01;;;;;;;10.50;4.43;;;;;;;;;;5009867;28;20033;-61
2021/05/13 03:40:30;;;;;;;8.77;4.10;;;;;;;;;;5009344;28;20505;-62
2021/05/13 03:42:56;;;;;;;12.35;4.57;;;;;;;;;;5015660;28;20029;-61
2021/05/13 03:45:22;;;;;;;11.93;4.70;;;;;;;;;;5013743;28;20033;-61
2021/05/13 03:47:48;;;;;;;9.32;5.65;;;;;;;;;;5013016;28;20088;-61
2021/05/13 03:50:14;;;;;;;15.13;6.82;;;;;;;;;;5013410;28;20100;-62
2021/05/13 03:52:41;;;;;;;10.00;5.82;;;;;;;;;;5013612;28;20022;-61
2021/05/13 03:55:07;;;;;;;12.57;6.10;;;;;;;;;;5014535;28;20022;-61
2021/05/13 03:57:33;;;;;;;84.85;7.60;;;;;;;;;;5013600;28;20572;-61
2021/05/13 04:00:01;;;;;;;112.60;7.40;;;;;;;;;;5013280;28;20029;-61
2021/05/13 04:02:32;;;;;;;218.77;7.38;;;;;;;;;;5013436;28;20053;-61
2021/05/13 04:04:59;;;;;;;236.20;7.85;;;;;;;;;;5011978;28;20519;-61
2021/05/13 04:07:36;;;;;;;36.53;4.68;;;;;;;;;;5012482;28;20080;-61
2021/05/13 04:10:04;;;;;;;90.00;7.03;;;;;;;;;;5011074;28;20022;-61
2021/05/13 04:12:30;;;;;;;15.32;5.32;;;;;;;;;;5012077;28;20049;-61
2021/05/13 04:14:58;;;;;;;152.20;7.40;;;;;;;;;;5012735;28;20109;-61
2021/05/13 04:17:24;;;;;;;26.63;3.90;;;;;;;;;;5013066;28;20076;-61
2021/05/13 04:19:50;;;;;;;25.65;4.65;;;;;;;;;;5012559;28;20038;-62
2021/05/13 04:22:16;;;;;;;47.78;5.25;;;;;;;;;;5013180;28;20052;-62
2021/05/13 04:24:43;;;;;;;44.97;6.00;;;;;;;;;;5012767;28;20382;-61
2021/05/13 04:27:09;;;;;;;49.15;6.65;;;;;;;;;;5013051;28;20140;-61
2021/05/13 04:29:35;;;;;;;16.40;5.40;;;;;;;;;;5012814;28;20079;-67
2021/05/13 04:32:01;;;;;;;38.47;6.22;;;;;;;;;;5012533;28;20037;-67
2021/05/13 04:34:27;;;;;;;432.50;14.15;;;;;;;;;;5012223;28;20072;-67
2021/05/13 04:36:53;;;;;;;17.30;6.63;;;;;;;;;;5014725;28;20029;-67
2021/05/13 04:39:19;;;;;;;170.52;9.05;;;;;;;;;;5012275;28;20025;-67
2021/05/13 04:41:45;;;;;;;191.85;9.05;;;;;;;;;;5012530;28;20030;-67
2021/05/13 04:44:11;;;;;;;288.65;14.00;;;;;;;;;;5010862;28;20030;-67
2021/05/13 04:46:38;;;;;;;229.27;10.25;;;;;;;;;;5011077;28;20662;-67
2021/05/13 04:51:34;;;;;;;102.60;7.03;;;;;;;;;;5013159;28;20053;-67
2021/05/13 04:54:00;;;;;;;143.10;7.68;;;;;;;;;;5012309;28;20026;-66
2021/05/13 04:56:26;;;;;;;77.47;6.10;;;;;;;;;;5011463;28;20231;-67
2021/05/13 04:58:52;;;;;;;223.80;9.20;;;;;;;;;;5012427;28;20113;-67
2021/05/13 05:01:19;;;;;;;138.65;6.68;;;;;;;;;;5012349;28;20537;-67
2021/05/13 05:03:45;;;;;;;210.88;7.55;;;;;;;;;;5014289;28;20030;-67
2021/05/13 05:06:11;;;;;;;78.00;4.78;;;;;;;;;;5011647;28;20450;-67
2021/05/13 05:08:40;;;;;;;144.18;7.13;;;;;;;;;;5012160;28;20026;-67
2021/05/13 05:11:07;;;;;;;127.53;6.28;;;;;;;;;;5011671;28;20049;-67
2021/05/13 05:13:33;;;;;;;149.65;7.63;;;;;;;;;;5011978;28;20076;-67
2021/05/13 05:15:59;;;;;;;78.38;6.30;;;;;;;;;;5014082;28;20026;-67
2021/05/13 05:18:25;;;;;;;115.68;7.53;;;;;;;;;;5011553;28;20034;-67
2021/05/13 05:20:52;;;;;;;13.05;5.18;;;;;;;;;;5011357;28;20044;-67
2021/05/13 05:23:18;;;;;;;16.48;5.35;;;;;;;;;;5010367;28;20036;-65
2021/05/13 05:25:45;;;;;;;75.00;4.88;;;;;;;;;;5010400;28;20050;-66
2021/05/13 05:28:11;;;;;;;36.85;4.00;;;;;;;;;;5012053;28;20029;-64
2021/05/13 05:30:37;;;;;;;9.73;4.47;;;;;;;;;;5011136;28;20111;-67
2021/05/13 05:33:10;;;;;;;21.50;3.20;;;;;;;;;;5010707;28;20085;-65
2021/05/13 05:35:37;;;;;;;6.00;2.83;;;;;;;;;;5006271;28;20034;-65
2021/05/13 05:38:03;;;;;;;74.90;4.15;;;;;;;;;;5007645;28;20026;-63
2021/05/13 05:40:29;;;;;;;7.80;2.58;;;;;;;;;;5004630;28;20022;-62
2021/05/13 05:42:57;;;;;;;3.95;2.28;;;;;;;;;;5013170;28;20030;-64
2021/05/13 05:45:23;;;;;;;4.50;2.58;;;;;;;;;;5009076;28;20478;-63
2021/05/13 05:47:50;;;;;;;3.47;2.10;;;;;;;;;;5011044;28;20033;-64
2021/05/13 05:50:17;;;;;;;5.50;1.70;;;;;;;;;;5009270;28;20382;-62
2021/05/13 05:52:43;;;;;;;2.92;1.52;;;;;;;;;;5011590;28;20022;-62
2021/05/13 05:55:10;;;;;;;2.47;1.42;;;;;;;;;;5010605;28;20481;-61
2021/05/13 05:57:36;;;;;;;2.15;1.40;;;;;;;;;;5011741;28;20022;-65
2021/05/13 06:00:04;;;;;;;2.72;1.70;;;;;;;;;;5010950;28;20030;-64
2021/05/13 06:02:30;;;;;;;3.03;1.50;;;;;;;;;;5009669;28;20026;-65
2021/05/13 06:04:57;;;;;;;3.83;1.88;;;;;;;;;;5008375;28;20141;-64
2021/05/13 06:07:24;;;;;;;5.22;1.60;;;;;;;;;;5011617;28;20548;-66
2021/05/13 06:09:50;;;;;;;2.78;1.55;;;;;;;;;;5011940;28;20065;-67
2021/05/13 06:12:16;;;;;;;4.43;1.90;;;;;;;;;;5009566;28;20038;-66
2021/05/13 06:14:42;;;;;;;2.97;1.55;;;;;;;;;;5010889;28;20034;-67
2021/05/13 06:17:09;;;;;;;5.55;1.58;;;;;;;;;;5010623;28;20056;-67
2021/05/13 06:19:35;;;;;;;7.38;1.80;;;;;;;;;;5007369;28;20594;-65
2021/05/13 06:22:01;;;;;;;3.60;1.15;;;;;;;;;;5015021;28;20029;-66
2021/05/13 06:24:27;;;;;;;4.50;1.70;;;;;;;;;;4998512;28;20033;-66
2021/05/13 06:27:00;;;;;;;2.95;1.60;;;;;;;;;;5008968;28;20026;-66
2021/05/13 06:29:28;;;;;;;4.32;1.55;;;;;;;;;;5003677;28;20052;-67
2021/05/13 06:31:54;;;;;;;4.03;1.67;;;;;;;;;;5010955;28;20129;-65
2021/05/13 06:34:20;;;;;;;4.35;1.85;;;;;;;;;;5001771;28;20116;-67
2021/05/13 06:36:46;;;;;;;3.72;1.40;;;;;;;;;;5005282;28;20109;-67
2021/05/13 06:39:12;;;;;;;5.85;1.50;;;;;;;;;;5008848;28;20051;-67
2021/05/13 06:41:41;;;;;;;2.63;1.40;;;;;;;;;;5001132;28;20417;-67
2021/05/13 06:44:07;;;;;;;8.20;1.70;;;;;;;;;;4997862;28;20025;-68
2021/05/13 06:46:33;;;;;;;2.83;1.58;;;;;;;;;;5009002;28;20083;-68
2021/05/13 06:48:59;;;;;;;5.82;1.65;;;;;;;;;;5010572;28;20416;-63
2021/05/13 06:51:25;;;;;;;5.03;1.35;;;;;;;;;;5009485;28;20033;-63
2021/05/13 06:53:51;;;;;;;3.58;1.48;;;;;;;;;;5009516;28;20030;-64
2021/05/13 06:56:17;;;;;;;9.68;2.28;;;;;;;;;;5008861;28;20385;-65
2021/05/13 06:58:44;;;;;;;4.72;1.63;;;;;;;;;;5005148;28;20032;-65
2021/05/13 07:01:10;;;;;;;5.45;1.35;;;;;;;;;;5008455;28;20033;-65
2021/05/13 07:03:36;;;;;;;3.15;1.20;;;;;;;;;;5010148;28;20608;-64
2021/05/13 07:06:02;;;;;;;6.35;1.40;;;;;;;;;;5007548;28;20463;-63
2021/05/13 07:08:28;;;;;;;3.13;1.50;;;;;;;;;;5009293;28;20053;-64
2021/05/13 07:10:54;;;;;;;2.80;1.00;;;;;;;;;;5009006;28;20033;-64
2021/05/13 07:13:21;;;;;;;3.58;1.20;;;;;;;;;;5009236;28;20025;-63
2021/05/13 07:15:47;;;;;;;1.48;1.20;;;;;;;;;;5011444;28;20030;-65
2021/05/13 07:18:13;;;;;;;6.93;1.23;;;;;;;;;;5008557;28;20452;-64
2021/05/13 07:20:39;;;;;;;2.25;1.30;;;;;;;;;;5008047;28;20041;-66
2021/05/13 07:23:05;;;;;;;2.33;1.00;;;;;;;;;;5008115;28;20026;-64
2021/05/13 07:25:32;;;;;;;5.90;1.30;;;;;;;;;;5008431;28;20084;-65
2021/05/13 07:27:58;;;;;;;5.03;1.20;;;;;;;;;;5010569;28;20026;-65
2021/05/13 07:30:24;;;;;;;4.53;1.20;;;;;;;;;;5008771;28;20037;-65
2021/05/13 07:32:51;;;;;;;2.97;0.90;;;;;;;;;;5008959;28;20022;-63
2021/05/13 07:35:17;;;;;;;5.28;1.40;;;;;;;;;;5009096;28;20076;-62
2021/05/13 07:37:44;;;;;;;1.77;0.95;;;;;;;;;;5009098;28;20030;-63
2021/05/13 07:40:10;;;;;;;5.03;1.00;;;;;;;;;;5010069;28;20511;-62
2021/05/13 07:42:36;;;;;;;3.55;1.00;;;;;;;;;;5009568;28;20415;-64
2021/05/13 07:45:03;;;;;;;2.75;0.77;;;;;;;;;;5007864;28;20030;-64
2021/05/13 07:47:29;;;;;;;2.45;0.85;;;;;;;;;;5008905;28;20117;-66
2021/05/13 07:49:55;;;;;;;3.47;1.20;;;;;;;;;;5007998;28;20078;-62
2021/05/13 07:52:21;;;;;;;3.65;0.90;;;;;;;;;;5009046;28;20049;-63
2021/05/13 07:54:47;;;;;;;3.55;0.98;;;;;;;;;;5008906;28;20030;-64
2021/05/13 07:57:13;;;;;;;2.20;0.90;;;;;;;;;;5008624;28;20030;-65
2021/05/13 07:59:39;;;;;;;6.90;1.10;;;;;;;;;;5007061;28;20097;-66
2021/05/13 08:02:06;;;;;;;1.73;0.90;;;;;;;;;;5002629;28;20055;-62
2021/05/13 08:04:32;;;;;;;5.78;1.23;;;;;;;;;;5003963;28;20021;-62
2021/05/13 08:06:58;;;;;;;4.97;0.90;;;;;;;;;;5008309;28;20030;-62
2021/05/13 08:09:24;;;;;;;2.42;0.93;;;;;;;;;;5009602;28;20508;-62
2021/05/13 08:11:50;;;;;;;3.45;1.10;;;;;;;;;;5004525;28;20044;-63
2021/05/13 08:14:16;;;;;;;2.70;1.00;;;;;;;;;;5003397;28;20474;-62
2021/05/13 08:16:42;;;;;;;2.63;0.90;;;;;;;;;;5008649;28;20029;-62
2021/05/13 08:19:08;;;;;;;3.55;0.90;;;;;;;;;;5010591;28;20507;-62
2021/05/13 08:21:35;;;;;;;4.10;1.02;;;;;;;;;;5012578;28;20477;-63
2021/05/13 08:24:01;;;;;;;2.00;0.90;;;;;;;;;;5010916;28;20034;-63
2021/05/13 08:26:28;;;;;;;3.25;1.00;;;;;;;;;;5009328;28;20705;-63
2021/05/13 08:28:54;;;;;;;3.73;0.90;;;;;;;;;;5013303;28;20120;-63
2021/05/13 08:31:20;;;;;;;1.23;0.90;;;;;;;;;;5012350;28;20048;-63
2021/05/13 08:33:46;;;;;;;2.10;1.00;;;;;;;;;;5017220;28;20045;-62
2021/05/13 08:36:12;;;;;;;1.88;0.80;;;;;;;;;;5012932;28;20105;-62
2021/05/13 08:38:38;;;;;;;2.20;0.90;;;;;;;;;;5015794;28;20366;-62
2021/05/13 08:41:05;;;;;;;3.50;0.90;;;;;;;;;;5026058;28;20033;-62
2021/05/13 08:43:31;;;;;;;1.90;0.90;;;;;;;;;;5010686;28;20460;-62
2021/05/13 08:45:58;;;;;;;4.70;1.20;;;;;;;;;;5015320;28;20452;-62
2021/05/13 08:48:30;;;;;;;4.03;1.00;;;;;;;;;;5011548;28;20026;-62
2021/05/13 08:50:57;;;;;;;2.00;0.90;;;;;;;;;;5009788;28;20060;-62
2021/05/13 08:53:23;;;;;;;1.23;0.77;;;;;;;;;;5006022;28;20108;-62
2021/05/13 08:55:50;;;;;;;2.72;0.88;;;;;;;;;;5002747;28;20029;-62
2021/05/13 08:58:16;;;;;;;2.25;0.93;;;;;;;;;;5010049;28;20105;-62
2021/05/13 09:00:51;;;;;;;1.70;0.80;;;;;;;;;;5012253;28;20042;-62
2021/05/13 09:03:38;;;;;;;4.57;1.05;;;;;;;;;;5002672;28;20053;-62
2021/05/13 09:06:04;;;;;;;3.35;1.00;;;;;;;;;;5010497;28;20038;-63
2021/05/13 09:08:31;;;;;;;2.83;1.10;;;;;;;;;;5010687;28;20536;-64
2021/05/13 09:11:09;;;;;;;2.88;0.93;;;;;;;;;;5010778;28;20486;-60
2021/05/13 09:13:35;;;;;;;3.65;1.10;;;;;;;;;;5006865;28;20022;-68
2021/05/13 09:16:02;;;;;;;4.20;1.00;;;;;;;;;;5013161;28;20382;-62
2021/05/13 09:18:32;;;;;;;5.55;1.70;;;;;;;;;;5009686;28;20022;-62
2021/05/13 09:21:05;;;;;;;1.17;1.00;;;;;;;;;;5009561;28;20465;-61
2021/05/13 09:23:31;;;;;;;2.95;0.90;;;;;;;;;;5010498;28;20030;-62
2021/05/13 09:26:33;;;;;;;1.92;0.93;;;;;;;;;;5007977;28;20053;-61
2021/05/13 09:29:12;;;;;;;2.78;0.90;;;;;;;;;;4941345;28;20067;-61
2021/05/13 09:31:40;;;;;;;3.92;1.00;;;;;;;;;;4988940;28;20053;-61
2021/05/13 09:34:08;;;;;;;2.80;0.82;;;;;;;;;;5011863;28;20056;-64
2021/05/13 09:36:35;;;;;;;5.43;0.98;;;;;;;;;;5005467;28;20029;-66
2021/05/13 09:39:20;;;;;;;0.70;0.40;;;;;;;;;;5008565;28;20014;-69
2021/05/13 09:41:56;;;;;;;1.02;0.47;;;;;;;;;;5009330;28;20073;-69
2021/05/13 09:44:32;;;;;;;1.25;0.30;;;;;;;;;;5010956;28;20086;-69
2021/05/13 09:47:11;;;;;;;2.08;0.60;;;;;;;;;;4987735;28;20034;-68
2021/05/13 09:49:51;;;;;;;2.65;0.38;;;;;;;;;;5007628;28;20042;-68
2021/05/13 09:52:35;;;;;;;1.42;0.60;;;;;;;;;;5007663;28;20033;-68
2021/05/13 09:55:12;;;;;;;5.95;0.80;;;;;;;;;;5006670;28;20030;-69
2021/05/13 09:57:38;;;;;;;1.55;0.73;;;;;;;;;;5010690;28;20125;-69
2021/05/13 10:00:08;;;;;;;2.15;0.50;;;;;;;;;;5004084;28;20448;-69
2021/05/13 10:02:37;;;;;;;2.63;0.50;;;;;;;;;;5007481;28;20029;-69
2021/05/13 10:05:06;;;;;;;1.77;0.80;;;;;;;;;;5009347;28;20173;-69
2021/05/13 10:07:32;;;;;;;2.10;0.60;;;;;;;;;;5008560;28;20026;-69
2021/05/13 10:09:58;;;;;;;1.05;0.40;;;;;;;;;;5010707;28;20048;-67
2021/05/13 10:12:24;;;;;;;0.77;0.47;;;;;;;;;;5005477;28;20385;-67
2021/05/13 10:14:52;;;;;;;1.05;0.50;;;;;;;;;;5007124;28;20520;-69
2021/05/13 10:17:18;;;;;;;0.95;0.60;;;;;;;;;;5004441;28;20026;-69
2021/05/13 10:19:46;;;;;;;0.40;0.30;;;;;;;;;;5037455;28;20026;-70
2021/05/13 10:22:14;;;;;;;1.27;0.30;;;;;;;;;;5007623;28;20049;-71
2021/05/13 10:24:40;;;;;;;1.77;0.57;;;;;;;;;;5009834;28;20048;-71
2021/05/13 10:27:19;;;;;;;0.30;0.30;;;;;;;;;;5004393;28;20429;-67
2021/05/13 10:29:46;;;;;;;0.30;0.30;;;;;;;;;;5009676;28;20068;-68
2021/05/13 10:32:18;;;;;;;1.00;0.47;;;;;;;;;;5009516;28;20440;-67
2021/05/13 10:34:47;;;;;;;1.75;0.40;;;;;;;;;;5008870;28;20050;-68
2021/05/13 10:37:13;;;;;;;0.68;0.38;;;;;;;;;;5010691;28;20389;-68
2021/05/13 10:39:58;;;;;;;1.88;0.50;;;;;;;;;;5009612;28;20477;-67
2021/05/13 10:42:31;;;;;;;1.85;0.50;;;;;;;;;;5008071;28;20034;-68
2021/05/13 10:44:58;;;;;;;0.50;0.43;;;;;;;;;;5005668;28;20029;-67
2021/05/13 10:47:28;;;;;;;0.68;0.40;;;;;;;;;;5006133;28;20022;-68
2021/05/13 10:49:55;;;;;;;0.88;0.50;;;;;;;;;;5006791;28;20042;-66
2021/05/13 10:52:30;;;;;;;0.43;0.35;;;;;;;;;;5007955;28;20014;-69
2021/05/13 10:54:58;;;;;;;1.75;0.30;;;;;;;;;;5022020;28;20033;-68
2021/05/13 10:57:24;;;;;;;1.23;0.50;;;;;;;;;;5004574;28;20061;-67
2021/05/13 11:00:07;;;;;;;0.30;0.30;;;;;;;;;;5006593;28;20040;-68
2021/05/13 11:02:40;;;;;;;1.50;0.50;;;;;;;;;;5003201;28;20025;-67
2021/05/13 11:05:26;;;;;;;0.35;0.30;;;;;;;;;;4999779;28;20512;-66
2021/05/13 11:07:52;;;;;;;3.00;0.47;;;;;;;;;;4997643;28;20461;-65
2021/05/13 11:10:18;;;;;;;0.50;0.43;;;;;;;;;;5009932;28;20034;-66
2021/05/13 11:12:44;;;;;;;1.90;0.40;;;;;;;;;;4999034;28;20445;-67
2021/05/13 11:15:17;;;;;;;1.70;0.60;;;;;;;;;;5005307;28;20057;-67
2021/05/13 11:17:58;;;;;;;0.80;0.50;;;;;;;;;;5005677;28;20026;-67
2021/05/13 11:20:28;;;;;;;0.60;0.50;;;;;;;;;;5004641;28;20034;-66
2021/05/13 11:23:14;;;;;;;0.50;0.40;;;;;;;;;;5001935;28;20033;-66
2021/05/13 11:25:59;;;;;;;1.05;0.38;;;;;;;;;;5007562;28;20030;-67
2021/05/13 11:28:46;;;;;;;0.68;0.40;;;;;;;;;;5004734;28;20065;-67
2021/05/13 11:31:18;;;;;;;1.40;0.40;;;;;;;;;;5008538;28;20116;-66
2021/05/13 11:33:46;;;;;;;1.20;0.40;;;;;;;;;;4999407;28;20050;-66
2021/05/13 11:36:14;;;;;;;0.50;0.35;;;;;;;;;;5005220;28;20080;-65
2021/05/13 11:38:40;;;;;;;0.75;0.40;;;;;;;;;;5005792;28;20022;-67
2021/05/13 11:41:06;;;;;;;1.23;0.55;;;;;;;;;;5005432;28;20046;-67
2021/05/13 11:43:33;;;;;;;0.55;0.40;;;;;;;;;;5007892;28;20030;-64
2021/05/13 11:46:02;;;;;;;0.95;0.40;;;;;;;;;;5008580;28;20022;-63
2021/05/13 11:48:31;;;;;;;1.40;0.50;;;;;;;;;;5005587;28;20040;-64
2021/05/13 11:50:59;;;;;;;1.27;0.50;;;;;;;;;;5004875;28;20037;-64
2021/05/13 11:53:25;;;;;;;3.35;0.50;;;;;;;;;;5002833;28;20085;-64
2021/05/13 11:55:51;;;;;;;0.40;0.40;;;;;;;;;;5006780;28;20512;-63
2021/05/13 11:58:38;;;;;;;0.20;0.20;;;;;;;;;;5006786;28;20482;-64
2021/05/13 12:01:17;;;;;;;2.78;0.40;;;;;;;;;;5009422;28;20041;-65
2021/05/13 12:03:43;;;;;;;0.60;0.40;;;;;;;;;;5009502;28;20041;-64
2021/05/13 12:06:09;;;;;;;0.93;0.50;;;;;;;;;;5008358;28;20140;-67
2021/05/13 12:08:37;;;;;;;0.98;0.38;;;;;;;;;;5008799;28;20088;-67
2021/05/13 12:11:15;;;;;;;2.50;0.50;;;;;;;;;;5008745;28;20030;-67
2021/05/13 12:13:41;;;;;;;1.55;0.45;;;;;;;;;;5009750;28;20033;-68
2021/05/13 12:16:07;;;;;;;1.30;0.40;;;;;;;;;;5002312;28;20025;-67
2021/05/13 12:18:35;;;;;;;0.82;0.20;;;;;;;;;;5008232;28;20026;-67
2021/05/13 12:21:01;;;;;;;1.08;0.40;;;;;;;;;;5039445;28;20041;-67
2021/05/13 12:23:27;;;;;;;0.95;0.45;;;;;;;;;;5012166;28;20029;-68
2021/05/13 12:25:53;;;;;;;0.63;0.30;;;;;;;;;;5012171;28;20050;-69
2021/05/13 12:28:19;;;;;;;0.90;0.40;;;;;;;;;;5011992;28;20033;-68
2021/05/13 12:30:55;;;;;;;1.08;0.40;;;;;;;;;;5013793;28;20229;-68
2021/05/13 12:33:22;;;;;;;0.80;0.40;;;;;;;;;;5009939;28;20500;-69
2021/05/13 12:35:49;;;;;;;0.30;0.30;;;;;;;;;;5010869;28;20393;-68
2021/05/13 12:38:16;;;;;;;0.63;0.35;;;;;;;;;;5010682;28;20132;-68
2021/05/13 12:40:43;;;;;;;0.65;0.40;;;;;;;;;;5012110;28;20030;-66
2021/05/13 12:43:15;;;;;;;0.47;0.32;;;;;;;;;;5012321;28;20054;-68
2021/05/13 12:45:43;;;;;;;0.13;0.13;;;;;;;;;;5013399;28;20125;-69
2021/05/13 12:48:09;;;;;;;1.52;0.45;;;;;;;;;;5011920;28;20025;-68
2021/05/13 12:50:35;;;;;;;0.30;0.28;;;;;;;;;;5011667;28;20545;-67
2021/05/13 12:53:09;;;;;;;0.85;0.32;;;;;;;;;;5011571;28;20034;-67
2021/05/13 12:55:42;;;;;;;1.17;0.30;;;;;;;;;;4997046;28;20048;-67
2021/05/13 12:58:09;;;;;;;0.88;0.40;;;;;;;;;;5012276;28;20053;-68
2021/05/13 13:00:35;;;;;;;0.70;0.43;;;;;;;;;;5012533;28;20081;-67
2021/05/13 13:03:05;;;;;;;1.10;0.50;;;;;;;;;;5011527;28;20033;-67
2021/05/13 13:05:31;;;;;;;0.40;0.30;;;;;;;;;;5011380;28;20528;-67
2021/05/13 13:07:57;;;;;;;0.93;0.38;;;;;;;;;;5011646;28;20141;-68
2021/05/13 13:10:24;;;;;;;0.20;0.20;;;;;;;;;;5011796;28;20145;-68
2021/05/13 13:13:10;;;;;;;0.50;0.30;;;;;;;;;;5011794;28;20029;-67
2021/05/13 13:15:40;;;;;;;1.17;0.50;;;;;;;;;;5012057;28;20038;-67
2021/05/13 13:18:08;;;;;;;3.15;0.57;;;;;;;;;;5009960;28;20026;-67
2021/05/13 13:20:34;;;;;;;2.05;0.30;;;;;;;;;;5011332;28;20022;-67
2021/05/13 13:23:16;;;;;;;0.35;0.35;;;;;;;;;;5011666;28;20148;-67
2021/05/13 13:25:42;;;;;;;1.15;0.50;;;;;;;;;;5011113;28;20037;-67
2021/05/13 13:28:09;;;;;;;1.23;0.30;;;;;;;;;;5012044;28;20385;-67
2021/05/13 13:30:35;;;;;;;0.40;0.30;;;;;;;;;;5012180;28;20030;-67
2021/05/13 13:33:13;;;;;;;0.80;0.32;;;;;;;;;;5011256;28;20109;-67
2021/05/13 13:35:40;;;;;;;0.90;0.30;;;;;;;;;;5010667;28;20106;-67
2021/05/13 13:38:08;;;;;;;0.60;0.40;;;;;;;;;;5010708;28;20032;-67
2021/05/13 13:40:34;;;;;;;;;;;;;;;;;;5011545;28;20034;-67
2021/05/13 13:43:01;;;;;;;2.22;0.82;;;;;;;;;;5013127;28;19906;-67
2021/05/13 13:45:27;;;;;;;0.60;0.30;;;;;;;;;;5010916;28;20488;-68
2021/05/13 13:47:53;;;;;;;0.52;0.38;;;;;;;;;;5010291;28;20021;-68
2021/05/13 13:50:19;;;;;;;1.67;0.40;;;;;;;;;;5008980;28;20041;-69
2021/05/13 13:52:45;;;;;;;2.70;0.47;;;;;;;;;;5009291;28;20066;-68
2021/05/13 13:55:11;;;;;;;1.02;0.40;;;;;;;;;;5010998;28;20045;-67
2021/05/13 13:57:38;;;;;;;0.32;0.30;;;;;;;;;;5010095;28;20026;-68
2021/05/13 14:00:04;;;;;;;0.52;0.22;;;;;;;;;;5010517;28;20135;-67
2021/05/13 14:02:30;;;;;;;0.57;0.32;;;;;;;;;;5010149;28;20045;-67
2021/05/13 14:04:56;;;;;;;0.80;0.30;;;;;;;;;;5010349;28;20493;-58
2021/05/13 14:07:22;;;;;;;0.88;0.30;;;;;;;;;;5010315;28;20038;-59
2021/05/13 14:09:48;;;;;;;2.15;0.38;;;;;;;;;;5011001;28;20048;-66
2021/05/13 14:12:14;;;;;;;2.67;0.50;;;;;;;;;;5010301;28;20037;-62
2021/05/13 14:14:40;;;;;;;0.55;0.30;;;;;;;;;;5008980;28;20034;-63
2021/05/13 14:17:06;;;;;;;3.63;0.63;;;;;;;;;;5010097;28;20038;-62
2021/05/13 14:19:32;;;;;;;3.15;0.40;;;;;;;;;;5010163;28;20540;-62
2021/05/13 14:22:02;;;;;;;1.17;0.50;;;;;;;;;;5011333;28;20033;-62
2021/05/13 14:24:28;;;;;;;2.38;0.38;;;;;;;;;;5008239;28;20466;-63
2021/05/13 14:26:54;;;;;;;1.90;0.40;;;;;;;;;;5010045;28;20117;-62
2021/05/13 14:29:20;;;;;;;0.60;0.40;;;;;;;;;;5008495;28;20490;-62
2021/05/13 14:31:46;;;;;;;1.15;0.30;;;;;;;;;;5008856;28;20026;-62
2021/05/13 14:34:12;;;;;;;4.70;1.10;;;;;;;;;;5011182;28;20049;-61
2021/05/13 14:36:38;;;;;;;0.50;0.30;;;;;;;;;;5009009;28;20501;-64
2021/05/13 14:39:04;;;;;;;1.67;0.40;;;;;;;;;;5009740;28;20030;-64
2021/05/13 14:41:30;;;;;;;2.95;0.52;;;;;;;;;;5009398;28;20053;-64
2021/05/13 14:43:56;;;;;;;1.88;0.50;;;;;;;;;;5009139;28;20429;-64
2021/05/13 14:46:24;;;;;;;1.05;0.38;;;;;;;;;;5009701;28;20053;-61
2021/05/13 14:48:58;;;;;;;0.43;0.32;;;;;;;;;;5011475;28;20018;-63
2021/05/13 14:51:24;;;;;;;0.45;0.28;;;;;;;;;;5009447;28;20044;-64
2021/05/13 14:53:50;;;;;;;0.38;0.30;;;;;;;;;;5008059;28;20067;-61